sensor_id;sensor_type;location;lat;lon;timestamp;P1;durP1;ratioP1;P2;durP2;ratioP2
57025;SDS011;43961;52.940;6.834;2022-12-16T00:00:12;138.63;;;93.68;;
57025;SDS011;43961;52.940;6.834;2022-12-16T00:02:40;138.73;;;95.40;;
57025;SDS011;43961;52.940;6.834;2022-12-16T00:05:06;58.92;;;28.13;;
57025;SDS011;43961;52.940;6.834;2022-12-16T00:07:32;138.27;;;91.00;;
57025;SDS011;43961;52.940;6.834;2022-12-16T00:09:58;144.88;;;92.88;;
57025;SDS011;43961;52.940;6.834;2022-12-16T00:12:24;136.45;;;92.25;;
57025;SDS011;43961;52.940;6.834;2022-12-16T00:14:50;141.27;;;90.90;;
57025;SDS011;43961;52.940;6.834;2022-12-16T00:17:34;138.75;;;92.22;;
57025;SDS011;43961;52.940;6.834;2022-12-16T00:22:50;153.45;;;99.65;;
57025;SDS011;43961;52.940;6.834;2022-12-16T00:27:47;143.35;;;95.32;;
57025;SDS011;43961;52.940;6.834;2022-12-16T00:30:14;144.32;;;93.72;;
57025;SDS011;43961;52.940;6.834;2022-12-16T00:32:39;163.18;;;99.97;;
57025;SDS011;43961;52.940;6.834;2022-12-16T00:35:05;148.05;;;95.05;;
57025;SDS011;43961;52.940;6.834;2022-12-16T00:37:31;144.60;;;94.75;;
57025;SDS011;43961;52.940;6.834;2022-12-16T00:39:57;145.95;;;94.85;;
57025;SDS011;43961;52.940;6.834;2022-12-16T00:42:22;145.57;;;93.28;;
57025;SDS011;43961;52.940;6.834;2022-12-16T00:44:48;138.75;;;91.25;;
57025;SDS011;43961;52.940;6.834;2022-12-16T00:47:13;142.52;;;95.15;;
57025;SDS011;43961;52.940;6.834;2022-12-16T00:49:39;68.78;;;36.28;;
57025;SDS011;43961;52.940;6.834;2022-12-16T00:52:05;144.63;;;94.40;;
57025;SDS011;43961;52.940;6.834;2022-12-16T00:54:30;140.60;;;96.25;;
57025;SDS011;43961;52.940;6.834;2022-12-16T00:56:56;144.98;;;92.15;;
57025;SDS011;43961;52.940;6.834;2022-12-16T00:59:22;138.90;;;90.07;;
57025;SDS011;43961;52.940;6.834;2022-12-16T01:01:48;128.48;;;88.95;;
57025;SDS011;43961;52.940;6.834;2022-12-16T01:04:15;143.32;;;96.63;;
57025;SDS011;43961;52.940;6.834;2022-12-16T01:06:40;137.13;;;93.03;;
57025;SDS011;43961;52.940;6.834;2022-12-16T01:09:06;140.82;;;87.55;;
57025;SDS011;43961;52.940;6.834;2022-12-16T01:11:32;134.15;;;89.22;;
57025;SDS011;43961;52.940;6.834;2022-12-16T01:13:58;140.48;;;92.97;;
57025;SDS011;43961;52.940;6.834;2022-12-16T01:16:24;141.40;;;93.82;;
57025;SDS011;43961;52.940;6.834;2022-12-16T01:18:50;144.55;;;91.05;;
57025;SDS011;43961;52.940;6.834;2022-12-16T01:21:15;139.10;;;89.93;;
57025;SDS011;43961;52.940;6.834;2022-12-16T01:23:41;137.48;;;91.70;;
57025;SDS011;43961;52.940;6.834;2022-12-16T01:26:08;144.20;;;92.32;;
57025;SDS011;43961;52.940;6.834;2022-12-16T01:28:39;147.70;;;94.25;;
57025;SDS011;43961;52.940;6.834;2022-12-16T01:31:04;133.80;;;88.55;;
57025;SDS011;43961;52.940;6.834;2022-12-16T01:33:30;78.68;;;38.13;;
57025;SDS011;43961;52.940;6.834;2022-12-16T01:35:57;135.38;;;88.07;;
57025;SDS011;43961;52.940;6.834;2022-12-16T01:38:24;144.95;;;94.43;;
57025;SDS011;43961;52.940;6.834;2022-12-16T01:40:50;144.50;;;93.95;;
57025;SDS011;43961;52.940;6.834;2022-12-16T01:43:15;153.98;;;99.13;;
57025;SDS011;43961;52.940;6.834;2022-12-16T01:45:45;148.65;;;95.25;;
57025;SDS011;43961;52.940;6.834;2022-12-16T01:50:51;137.27;;;95.75;;
57025;SDS011;43961;52.940;6.834;2022-12-16T01:53:20;148.68;;;96.13;;
57025;SDS011;43961;52.940;6.834;2022-12-16T01:55:47;139.10;;;93.68;;
57025;SDS011;43961;52.940;6.834;2022-12-16T01:58:15;144.23;;;99.03;;
57025;SDS011;43961;52.940;6.834;2022-12-16T02:00:45;146.35;;;93.82;;
57025;SDS011;43961;52.940;6.834;2022-12-16T02:03:11;151.55;;;98.03;;
57025;SDS011;43961;52.940;6.834;2022-12-16T02:05:37;150.02;;;95.20;;
57025;SDS011;43961;52.940;6.834;2022-12-16T02:13:20;140.18;;;96.40;;
57025;SDS011;43961;52.940;6.834;2022-12-16T02:18:54;62.60;;;28.55;;
57025;SDS011;43961;52.940;6.834;2022-12-16T02:27:50;140.88;;;93.43;;
57025;SDS011;43961;52.940;6.834;2022-12-16T02:41:22;138.88;;;93.97;;
57025;SDS011;43961;52.940;6.834;2022-12-16T02:44:05;161.02;;;95.55;;
57025;SDS011;43961;52.940;6.834;2022-12-16T02:46:32;147.82;;;96.45;;
57025;SDS011;43961;52.940;6.834;2022-12-16T02:49:52;79.15;;;42.85;;
57025;SDS011;43961;52.940;6.834;2022-12-16T02:51:53;152.48;;;94.57;;
57025;SDS011;43961;52.940;6.834;2022-12-16T02:54:20;93.40;;;38.38;;
57025;SDS011;43961;52.940;6.834;2022-12-16T03:01:56;149.68;;;95.00;;
57025;SDS011;43961;52.940;6.834;2022-12-16T03:04:38;145.65;;;97.13;;
57025;SDS011;43961;52.940;6.834;2022-12-16T03:07:09;149.52;;;93.13;;
57025;SDS011;43961;52.940;6.834;2022-12-16T03:09:38;141.85;;;91.32;;
57025;SDS011;43961;52.940;6.834;2022-12-16T03:14:34;77.75;;;37.92;;
57025;SDS011;43961;52.940;6.834;2022-12-16T03:17:02;72.43;;;37.72;;
57025;SDS011;43961;52.940;6.834;2022-12-16T03:19:29;139.80;;;94.32;;
57025;SDS011;43961;52.940;6.834;2022-12-16T03:21:58;156.48;;;95.68;;
57025;SDS011;43961;52.940;6.834;2022-12-16T03:24:33;148.32;;;96.35;;
57025;SDS011;43961;52.940;6.834;2022-12-16T03:27:05;142.05;;;93.68;;
57025;SDS011;43961;52.940;6.834;2022-12-16T03:29:44;140.10;;;94.28;;
57025;SDS011;43961;52.940;6.834;2022-12-16T03:35:04;138.85;;;93.63;;
57025;SDS011;43961;52.940;6.834;2022-12-16T03:37:48;144.45;;;95.63;;
57025;SDS011;43961;52.940;6.834;2022-12-16T03:40:16;142.18;;;95.07;;
57025;SDS011;43961;52.940;6.834;2022-12-16T03:42:43;143.30;;;94.72;;
57025;SDS011;43961;52.940;6.834;2022-12-16T03:45:16;77.38;;;37.13;;
57025;SDS011;43961;52.940;6.834;2022-12-16T03:47:51;145.68;;;96.60;;
57025;SDS011;43961;52.940;6.834;2022-12-16T03:50:22;142.35;;;92.22;;
57025;SDS011;43961;52.940;6.834;2022-12-16T03:52:51;138.18;;;93.38;;
57025;SDS011;43961;52.940;6.834;2022-12-16T03:55:17;153.90;;;95.07;;
57025;SDS011;43961;52.940;6.834;2022-12-16T03:57:42;149.35;;;94.78;;
57025;SDS011;43961;52.940;6.834;2022-12-16T04:00:08;142.38;;;93.53;;
57025;SDS011;43961;52.940;6.834;2022-12-16T04:02:34;87.38;;;39.45;;
57025;SDS011;43961;52.940;6.834;2022-12-16T04:05:00;147.38;;;95.60;;
57025;SDS011;43961;52.940;6.834;2022-12-16T04:07:26;144.82;;;95.00;;
57025;SDS011;43961;52.940;6.834;2022-12-16T04:09:51;142.82;;;93.45;;
57025;SDS011;43961;52.940;6.834;2022-12-16T04:12:17;141.10;;;93.28;;
57025;SDS011;43961;52.940;6.834;2022-12-16T04:15:03;152.32;;;98.07;;
57025;SDS011;43961;52.940;6.834;2022-12-16T04:17:49;145.77;;;92.93;;
57025;SDS011;43961;52.940;6.834;2022-12-16T04:20:38;143.80;;;92.57;;
57025;SDS011;43961;52.940;6.834;2022-12-16T04:23:25;68.55;;;36.65;;
57025;SDS011;43961;52.940;6.834;2022-12-16T04:26:11;83.70;;;36.00;;
57025;SDS011;43961;52.940;6.834;2022-12-16T04:28:37;138.05;;;91.50;;
57025;SDS011;43961;52.940;6.834;2022-12-16T04:31:03;145.07;;;95.05;;
57025;SDS011;43961;52.940;6.834;2022-12-16T04:33:29;146.38;;;95.60;;
57025;SDS011;43961;52.940;6.834;2022-12-16T04:36:13;139.07;;;93.05;;
57025;SDS011;43961;52.940;6.834;2022-12-16T04:38:57;143.38;;;91.95;;
57025;SDS011;43961;52.940;6.834;2022-12-16T04:41:42;139.10;;;86.93;;
57025;SDS011;43961;52.940;6.834;2022-12-16T04:44:26;73.57;;;36.10;;
57025;SDS011;43961;52.940;6.834;2022-12-16T04:47:10;132.73;;;86.97;;
57025;SDS011;43961;52.940;6.834;2022-12-16T04:49:55;131.68;;;86.15;;
57025;SDS011;43961;52.940;6.834;2022-12-16T04:52:39;142.70;;;93.03;;
57025;SDS011;43961;52.940;6.834;2022-12-16T04:55:24;139.60;;;88.93;;
57025;SDS011;43961;52.940;6.834;2022-12-16T04:58:08;136.98;;;89.47;;
57025;SDS011;43961;52.940;6.834;2022-12-16T05:00:52;60.63;;;31.05;;
57025;SDS011;43961;52.940;6.834;2022-12-16T05:03:36;62.90;;;28.88;;
57025;SDS011;43961;52.940;6.834;2022-12-16T05:06:20;67.47;;;31.77;;
57025;SDS011;43961;52.940;6.834;2022-12-16T05:09:05;108.72;;;71.38;;
57025;SDS011;43961;52.940;6.834;2022-12-16T05:11:50;74.05;;;32.20;;
57025;SDS011;43961;52.940;6.834;2022-12-16T05:14:34;112.90;;;72.63;;
57025;SDS011;43961;52.940;6.834;2022-12-16T05:17:18;121.78;;;80.35;;
57025;SDS011;43961;52.940;6.834;2022-12-16T05:20:03;118.25;;;80.70;;
57025;SDS011;43961;52.940;6.834;2022-12-16T05:22:48;123.53;;;84.13;;
57025;SDS011;43961;52.940;6.834;2022-12-16T05:25:33;141.02;;;88.75;;
57025;SDS011;43961;52.940;6.834;2022-12-16T05:28:18;124.50;;;84.78;;
57025;SDS011;43961;52.940;6.834;2022-12-16T05:31:02;77.85;;;34.08;;
57025;SDS011;43961;52.940;6.834;2022-12-16T05:34:00;114.13;;;80.78;;
57025;SDS011;43961;52.940;6.834;2022-12-16T05:36:59;118.85;;;81.32;;
57025;SDS011;43961;52.940;6.834;2022-12-16T05:39:50;69.60;;;28.55;;
57025;SDS011;43961;52.940;6.834;2022-12-16T05:42:34;121.80;;;75.32;;
57025;SDS011;43961;52.940;6.834;2022-12-16T05:45:19;105.40;;;73.50;;
57025;SDS011;43961;52.940;6.834;2022-12-16T05:48:03;113.53;;;74.63;;
57025;SDS011;43961;52.940;6.834;2022-12-16T05:50:47;108.85;;;71.93;;
57025;SDS011;43961;52.940;6.834;2022-12-16T05:53:31;121.28;;;79.28;;
57025;SDS011;43961;52.940;6.834;2022-12-16T05:56:15;111.43;;;72.43;;
57025;SDS011;43961;52.940;6.834;2022-12-16T05:58:59;111.85;;;73.85;;
57025;SDS011;43961;52.940;6.834;2022-12-16T06:01:44;119.40;;;72.55;;
57025;SDS011;43961;52.940;6.834;2022-12-16T06:04:28;100.45;;;69.03;;
57025;SDS011;43961;52.940;6.834;2022-12-16T06:07:12;96.65;;;64.65;;
57025;SDS011;43961;52.940;6.834;2022-12-16T06:09:56;97.53;;;64.55;;
57025;SDS011;43961;52.940;6.834;2022-12-16T06:12:40;41.22;;;24.77;;
57025;SDS011;43961;52.940;6.834;2022-12-16T06:15:29;111.15;;;71.63;;
57025;SDS011;43961;52.940;6.834;2022-12-16T06:18:14;105.28;;;65.55;;
57025;SDS011;43961;52.940;6.834;2022-12-16T06:20:58;110.45;;;69.45;;
57025;SDS011;43961;52.940;6.834;2022-12-16T06:23:42;59.83;;;29.83;;
57025;SDS011;43961;52.940;6.834;2022-12-16T06:26:26;116.97;;;71.20;;
57025;SDS011;43961;52.940;6.834;2022-12-16T06:29:10;133.70;;;76.50;;
57025;SDS011;43961;52.940;6.834;2022-12-16T06:32:02;134.35;;;82.05;;
57025;SDS011;43961;52.940;6.834;2022-12-16T06:34:46;138.80;;;83.88;;
57025;SDS011;43961;52.940;6.834;2022-12-16T06:37:30;78.88;;;33.55;;
57025;SDS011;43961;52.940;6.834;2022-12-16T06:40:14;142.77;;;80.95;;
57025;SDS011;43961;52.940;6.834;2022-12-16T06:42:58;137.80;;;81.57;;
57025;SDS011;43961;52.940;6.834;2022-12-16T06:45:42;126.30;;;77.75;;
57025;SDS011;43961;52.940;6.834;2022-12-16T06:48:27;132.23;;;72.00;;
57025;SDS011;43961;52.940;6.834;2022-12-16T06:51:11;119.57;;;73.85;;
57025;SDS011;43961;52.940;6.834;2022-12-16T06:53:55;131.00;;;77.25;;
57025;SDS011;43961;52.940;6.834;2022-12-16T06:56:39;120.82;;;71.68;;
57025;SDS011;43961;52.940;6.834;2022-12-16T06:59:23;125.25;;;74.30;;
57025;SDS011;43961;52.940;6.834;2022-12-16T07:02:09;130.40;;;82.68;;
57025;SDS011;43961;52.940;6.834;2022-12-16T07:04:54;69.57;;;34.08;;
57025;SDS011;43961;52.940;6.834;2022-12-16T07:07:38;144.15;;;89.90;;
57025;SDS011;43961;52.940;6.834;2022-12-16T07:10:22;169.13;;;94.38;;
57025;SDS011;43961;52.940;6.834;2022-12-16T07:13:06;80.97;;;34.47;;
57025;SDS011;43961;52.940;6.834;2022-12-16T07:15:50;145.98;;;93.82;;
57025;SDS011;43961;52.940;6.834;2022-12-16T07:18:34;172.02;;;92.80;;
57025;SDS011;43961;52.940;6.834;2022-12-16T07:21:19;160.05;;;92.63;;
57025;SDS011;43961;52.940;6.834;2022-12-16T07:24:03;164.15;;;97.03;;
57025;SDS011;43961;52.940;6.834;2022-12-16T07:26:55;163.60;;;100.13;;
57025;SDS011;43961;52.940;6.834;2022-12-16T07:29:39;175.55;;;99.20;;
57025;SDS011;43961;52.940;6.834;2022-12-16T07:35:45;185.05;;;102.78;;
57025;SDS011;43961;52.940;6.834;2022-12-16T07:38:29;191.80;;;103.00;;
57025;SDS011;43961;52.940;6.834;2022-12-16T07:41:13;186.57;;;107.55;;
57025;SDS011;43961;52.940;6.834;2022-12-16T07:43:58;179.00;;;101.18;;
57025;SDS011;43961;52.940;6.834;2022-12-16T07:46:42;190.35;;;104.05;;
57025;SDS011;43961;52.940;6.834;2022-12-16T07:49:26;195.68;;;101.40;;
57025;SDS011;43961;52.940;6.834;2022-12-16T07:52:10;191.40;;;107.15;;
57025;SDS011;43961;52.940;6.834;2022-12-16T07:54:54;186.68;;;103.43;;
57025;SDS011;43961;52.940;6.834;2022-12-16T07:57:38;189.88;;;103.50;;
57025;SDS011;43961;52.940;6.834;2022-12-16T08:00:22;93.28;;;41.63;;
57025;SDS011;43961;52.940;6.834;2022-12-16T08:03:06;181.52;;;101.93;;
57025;SDS011;43961;52.940;6.834;2022-12-16T08:05:51;208.88;;;113.32;;
57025;SDS011;43961;52.940;6.834;2022-12-16T08:08:35;183.88;;;104.90;;
57025;SDS011;43961;52.940;6.834;2022-12-16T08:11:19;208.15;;;109.00;;
57025;SDS011;43961;52.940;6.834;2022-12-16T08:14:03;186.68;;;104.47;;
57025;SDS011;43961;52.940;6.834;2022-12-16T08:16:47;89.18;;;45.60;;
57025;SDS011;43961;52.940;6.834;2022-12-16T08:19:31;192.93;;;104.07;;
57025;SDS011;43961;52.940;6.834;2022-12-16T08:22:16;100.45;;;41.42;;
57025;SDS011;43961;52.940;6.834;2022-12-16T08:25:00;189.63;;;104.95;;
57025;SDS011;43961;52.940;6.834;2022-12-16T08:27:44;184.20;;;104.53;;
57025;SDS011;43961;52.940;6.834;2022-12-16T08:30:28;183.30;;;104.43;;
57025;SDS011;43961;52.940;6.834;2022-12-16T08:33:12;77.53;;;35.25;;
57025;SDS011;43961;52.940;6.834;2022-12-16T08:35:57;186.40;;;106.18;;
57025;SDS011;43961;52.940;6.834;2022-12-16T08:38:41;199.10;;;105.88;;
57025;SDS011;43961;52.940;6.834;2022-12-16T08:41:28;190.32;;;104.63;;
57025;SDS011;43961;52.940;6.834;2022-12-16T08:44:12;204.02;;;107.28;;
57025;SDS011;43961;52.940;6.834;2022-12-16T08:46:56;195.05;;;107.72;;
57025;SDS011;43961;52.940;6.834;2022-12-16T08:49:40;83.05;;;37.08;;
57025;SDS011;43961;52.940;6.834;2022-12-16T08:52:24;75.70;;;36.75;;
57025;SDS011;43961;52.940;6.834;2022-12-16T08:55:08;197.45;;;107.22;;
57025;SDS011;43961;52.940;6.834;2022-12-16T08:57:53;209.18;;;109.72;;
57025;SDS011;43961;52.940;6.834;2022-12-16T09:00:38;206.45;;;105.85;;
57025;SDS011;43961;52.940;6.834;2022-12-16T09:03:22;66.40;;;33.95;;
57025;SDS011;43961;52.940;6.834;2022-12-16T09:06:06;203.32;;;108.18;;
57025;SDS011;43961;52.940;6.834;2022-12-16T09:08:50;208.77;;;110.55;;
57025;SDS011;43961;52.940;6.834;2022-12-16T09:11:34;197.55;;;107.43;;
57025;SDS011;43961;52.940;6.834;2022-12-16T09:14:19;213.48;;;109.65;;
57025;SDS011;43961;52.940;6.834;2022-12-16T09:17:03;206.90;;;113.30;;
57025;SDS011;43961;52.940;6.834;2022-12-16T09:19:47;216.23;;;110.80;;
57025;SDS011;43961;52.940;6.834;2022-12-16T09:22:32;92.18;;;29.48;;
57025;SDS011;43961;52.940;6.834;2022-12-16T09:25:16;196.57;;;109.47;;
57025;SDS011;43961;52.940;6.834;2022-12-16T09:28:00;208.90;;;112.82;;
57025;SDS011;43961;52.940;6.834;2022-12-16T09:30:44;223.43;;;115.50;;
57025;SDS011;43961;52.940;6.834;2022-12-16T09:33:28;222.02;;;113.15;;
57025;SDS011;43961;52.940;6.834;2022-12-16T09:36:12;230.40;;;115.88;;
57025;SDS011;43961;52.940;6.834;2022-12-16T09:38:56;224.95;;;114.70;;
57025;SDS011;43961;52.940;6.834;2022-12-16T09:41:41;225.73;;;118.07;;
57025;SDS011;43961;52.940;6.834;2022-12-16T09:44:33;217.25;;;116.25;;
57025;SDS011;43961;52.940;6.834;2022-12-16T09:53:25;243.13;;;123.32;;
57025;SDS011;43961;52.940;6.834;2022-12-16T09:56:28;235.75;;;119.75;;
57025;SDS011;43961;52.940;6.834;2022-12-16T09:59:16;232.43;;;117.78;;
57025;SDS011;43961;52.940;6.834;2022-12-16T10:02:10;248.02;;;123.25;;
57025;SDS011;43961;52.940;6.834;2022-12-16T10:04:55;266.98;;;121.85;;
57025;SDS011;43961;52.940;6.834;2022-12-16T10:08:17;248.15;;;125.20;;
57025;SDS011;43961;52.940;6.834;2022-12-16T10:11:02;69.70;;;31.27;;
57025;SDS011;43961;52.940;6.834;2022-12-16T10:13:57;270.25;;;125.85;;
57025;SDS011;43961;52.940;6.834;2022-12-16T10:17:11;58.30;;;25.77;;
57025;SDS011;43961;52.940;6.834;2022-12-16T10:26:20;267.27;;;129.43;;
57025;SDS011;43961;52.940;6.834;2022-12-16T10:29:06;284.17;;;131.38;;
57025;SDS011;43961;52.940;6.834;2022-12-16T10:32:03;287.35;;;126.20;;
57025;SDS011;43961;52.940;6.834;2022-12-16T10:35:13;64.75;;;24.60;;
57025;SDS011;43961;52.940;6.834;2022-12-16T10:41:38;252.63;;;126.78;;
57025;SDS011;43961;52.940;6.834;2022-12-16T10:44:25;276.02;;;132.13;;
57025;SDS011;43961;52.940;6.834;2022-12-16T10:47:33;279.98;;;132.38;;
57025;SDS011;43961;52.940;6.834;2022-12-16T10:50:17;298.15;;;135.95;;
57025;SDS011;43961;52.940;6.834;2022-12-16T10:53:03;298.23;;;135.60;;
57025;SDS011;43961;52.940;6.834;2022-12-16T10:59:36;291.52;;;139.63;;
57025;SDS011;43961;52.940;6.834;2022-12-16T11:02:23;315.00;;;139.07;;
57025;SDS011;43961;52.940;6.834;2022-12-16T11:13:21;371.13;;;154.20;;
57025;SDS011;43961;52.940;6.834;2022-12-16T11:19:36;364.45;;;163.23;;
57025;SDS011;43961;52.940;6.834;2022-12-16T11:22:21;412.38;;;170.15;;
57025;SDS011;43961;52.940;6.834;2022-12-16T11:25:14;473.55;;;190.43;;
57025;SDS011;43961;52.940;6.834;2022-12-16T11:31:06;536.22;;;194.30;;
57025;SDS011;43961;52.940;6.834;2022-12-16T11:33:56;79.85;;;28.88;;
57025;SDS011;43961;52.940;6.834;2022-12-16T11:36:43;137.10;;;41.50;;
57025;SDS011;43961;52.940;6.834;2022-12-16T11:39:28;551.80;;;196.43;;
57025;SDS011;43961;52.940;6.834;2022-12-16T11:42:21;633.50;;;221.60;;
57025;SDS011;43961;52.940;6.834;2022-12-16T11:45:16;551.95;;;200.05;;
57025;SDS011;43961;52.940;6.834;2022-12-16T11:51:03;632.70;;;220.18;;
57025;SDS011;43961;52.940;6.834;2022-12-16T11:53:58;531.92;;;201.82;;
57025;SDS011;43961;52.940;6.834;2022-12-16T11:56:48;88.80;;;31.35;;
57025;SDS011;43961;52.940;6.834;2022-12-16T11:59:35;643.08;;;224.85;;
57025;SDS011;43961;52.940;6.834;2022-12-16T12:02:25;532.80;;;204.13;;
57025;SDS011;43961;52.940;6.834;2022-12-16T12:05:23;617.65;;;226.52;;
57025;SDS011;43961;52.940;6.834;2022-12-16T12:11:31;533.88;;;196.40;;
57025;SDS011;43961;52.940;6.834;2022-12-16T12:26:56;568.15;;;212.90;;
57025;SDS011;43961;52.940;6.834;2022-12-16T12:30:05;448.52;;;172.07;;
57025;SDS011;43961;52.940;6.834;2022-12-16T12:32:59;437.85;;;170.80;;
57025;SDS011;43961;52.940;6.834;2022-12-16T12:36:01;467.58;;;182.68;;
57025;SDS011;43961;52.940;6.834;2022-12-16T12:41:53;431.73;;;170.50;;
57025;SDS011;43961;52.940;6.834;2022-12-16T12:48:09;595.78;;;219.35;;
57025;SDS011;43961;52.940;6.834;2022-12-16T12:51:05;465.67;;;183.25;;
57025;SDS011;43961;52.940;6.834;2022-12-16T12:56:57;417.77;;;164.68;;
57025;SDS011;43961;52.940;6.834;2022-12-16T13:02:59;435.05;;;164.70;;
57025;SDS011;43961;52.940;6.834;2022-12-16T13:05:47;75.53;;;28.92;;
57025;SDS011;43961;52.940;6.834;2022-12-16T13:08:40;425.48;;;163.18;;
57025;SDS011;43961;52.940;6.834;2022-12-16T13:11:39;461.65;;;174.57;;
57025;SDS011;43961;52.940;6.834;2022-12-16T13:14:51;397.67;;;161.15;;
57025;SDS011;43961;52.940;6.834;2022-12-16T13:20:53;373.65;;;152.45;;
57025;SDS011;43961;52.940;6.834;2022-12-16T13:23:40;397.02;;;159.90;;
57025;SDS011;43961;52.940;6.834;2022-12-16T13:26:29;510.80;;;191.23;;
57025;SDS011;43961;52.940;6.834;2022-12-16T13:37:56;495.67;;;183.63;;
57025;SDS011;43961;52.940;6.834;2022-12-16T13:43:56;448.30;;;173.30;;
57025;SDS011;43961;52.940;6.834;2022-12-16T13:46:48;503.15;;;190.70;;
57025;SDS011;43961;52.940;6.834;2022-12-16T13:49:50;448.17;;;163.70;;
57025;SDS011;43961;52.940;6.834;2022-12-16T13:52:47;164.48;;;47.97;;
57025;SDS011;43961;52.940;6.834;2022-12-16T13:58:35;117.97;;;41.42;;
57025;SDS011;43961;52.940;6.834;2022-12-16T14:04:34;454.13;;;172.48;;
57025;SDS011;43961;52.940;6.834;2022-12-16T14:07:22;440.42;;;165.55;;
57025;SDS011;43961;52.940;6.834;2022-12-16T14:13:49;458.63;;;172.15;;
57025;SDS011;43961;52.940;6.834;2022-12-16T14:16:53;476.85;;;176.80;;
57025;SDS011;43961;52.940;6.834;2022-12-16T14:26:11;591.13;;;217.02;;
57025;SDS011;43961;52.940;6.834;2022-12-16T14:28:56;414.67;;;158.32;;
57025;SDS011;43961;52.940;6.834;2022-12-16T14:31:43;395.20;;;155.35;;
57025;SDS011;43961;52.940;6.834;2022-12-16T14:34:29;362.95;;;145.55;;
57025;SDS011;43961;52.940;6.834;2022-12-16T14:40:18;397.23;;;150.40;;
57025;SDS011;43961;52.940;6.834;2022-12-16T14:43:09;396.83;;;147.93;;
57025;SDS011;43961;52.940;6.834;2022-12-16T14:45:56;355.83;;;142.95;;
57025;SDS011;43961;52.940;6.834;2022-12-16T14:48:40;362.83;;;139.52;;
57025;SDS011;43961;52.940;6.834;2022-12-16T14:51:44;167.80;;;48.45;;
57025;SDS011;43961;52.940;6.834;2022-12-16T14:54:38;486.73;;;168.93;;
57025;SDS011;43961;52.940;6.834;2022-12-16T14:57:26;379.08;;;140.73;;
57025;SDS011;43961;52.940;6.834;2022-12-16T15:03:02;380.20;;;141.00;;
57025;SDS011;43961;52.940;6.834;2022-12-16T15:05:51;90.15;;;30.15;;
57025;SDS011;43961;52.940;6.834;2022-12-16T15:08:46;333.80;;;130.30;;
57025;SDS011;43961;52.940;6.834;2022-12-16T15:11:39;326.13;;;127.30;;
57025;SDS011;43961;52.940;6.834;2022-12-16T15:14:31;420.55;;;152.68;;
57025;SDS011;43961;52.940;6.834;2022-12-16T15:17:22;379.92;;;144.27;;
57025;SDS011;43961;52.940;6.834;2022-12-16T15:20:15;374.67;;;140.73;;
57025;SDS011;43961;52.940;6.834;2022-12-16T15:23:02;364.05;;;142.55;;
57025;SDS011;43961;52.940;6.834;2022-12-16T15:25:53;374.70;;;145.25;;
57025;SDS011;43961;52.940;6.834;2022-12-16T15:28:58;389.30;;;146.55;;
57025;SDS011;43961;52.940;6.834;2022-12-16T15:31:42;391.63;;;147.82;;
57025;SDS011;43961;52.940;6.834;2022-12-16T15:37:20;355.75;;;139.98;;
57025;SDS011;43961;52.940;6.834;2022-12-16T15:40:20;354.30;;;132.80;;
57025;SDS011;43961;52.940;6.834;2022-12-16T15:43:26;67.82;;;26.33;;
57025;SDS011;43961;52.940;6.834;2022-12-16T15:46:16;319.48;;;133.77;;
57025;SDS011;43961;52.940;6.834;2022-12-16T15:55:26;339.13;;;126.75;;
57025;SDS011;43961;52.940;6.834;2022-12-16T15:58:25;283.90;;;120.97;;
57025;SDS011;43961;52.940;6.834;2022-12-16T16:01:13;326.58;;;129.20;;
57025;SDS011;43961;52.940;6.834;2022-12-16T16:03:59;257.20;;;117.00;;
57025;SDS011;43961;52.940;6.834;2022-12-16T16:06:46;293.95;;;120.75;;
57025;SDS011;43961;52.940;6.834;2022-12-16T16:09:33;297.05;;;120.80;;
57025;SDS011;43961;52.940;6.834;2022-12-16T16:12:19;279.02;;;123.18;;
57025;SDS011;43961;52.940;6.834;2022-12-16T16:22:04;266.23;;;115.60;;
57025;SDS011;43961;52.940;6.834;2022-12-16T16:24:56;256.65;;;112.10;;
57025;SDS011;43961;52.940;6.834;2022-12-16T16:27:40;248.93;;;113.45;;
57025;SDS011;43961;52.940;6.834;2022-12-16T16:30:25;258.10;;;114.20;;
57025;SDS011;43961;52.940;6.834;2022-12-16T16:33:11;294.95;;;121.07;;
57025;SDS011;43961;52.940;6.834;2022-12-16T16:35:55;269.77;;;113.75;;
57025;SDS011;43961;52.940;6.834;2022-12-16T16:38:41;252.23;;;112.32;;
57025;SDS011;43961;52.940;6.834;2022-12-16T16:41:25;238.52;;;113.03;;
57025;SDS011;43961;52.940;6.834;2022-12-16T16:44:10;267.55;;;115.75;;
57025;SDS011;43961;52.940;6.834;2022-12-16T16:46:55;246.63;;;112.72;;
57025;SDS011;43961;52.940;6.834;2022-12-16T16:49:42;245.27;;;115.43;;
57025;SDS011;43961;52.940;6.834;2022-12-16T16:52:30;268.60;;;117.18;;
57025;SDS011;43961;52.940;6.834;2022-12-16T16:55:20;230.15;;;112.57;;
57025;SDS011;43961;52.940;6.834;2022-12-16T16:58:18;258.90;;;115.20;;
57025;SDS011;43961;52.940;6.834;2022-12-16T17:01:09;104.18;;;42.63;;
57025;SDS011;43961;52.940;6.834;2022-12-16T17:03:55;229.32;;;105.72;;
57025;SDS011;43961;52.940;6.834;2022-12-16T17:06:43;233.85;;;107.47;;
57025;SDS011;43961;52.940;6.834;2022-12-16T17:12:20;119.57;;;43.70;;
57025;SDS011;43961;52.940;6.834;2022-12-16T17:15:13;225.38;;;102.15;;
57025;SDS011;43961;52.940;6.834;2022-12-16T17:17:57;235.40;;;106.22;;
57025;SDS011;43961;52.940;6.834;2022-12-16T17:20:41;228.85;;;104.28;;
57025;SDS011;43961;52.940;6.834;2022-12-16T17:23:25;226.52;;;103.78;;
57025;SDS011;43961;52.940;6.834;2022-12-16T17:26:10;226.80;;;107.38;;
57025;SDS011;43961;52.940;6.834;2022-12-16T17:28:54;249.27;;;105.93;;
57025;SDS011;43961;52.940;6.834;2022-12-16T17:31:40;253.18;;;110.80;;
57025;SDS011;43961;52.940;6.834;2022-12-16T17:34:25;251.65;;;109.88;;
57025;SDS011;43961;52.940;6.834;2022-12-16T17:37:10;236.52;;;106.80;;
57025;SDS011;43961;52.940;6.834;2022-12-16T17:39:58;245.07;;;104.50;;
57025;SDS011;43961;52.940;6.834;2022-12-16T17:42:43;228.63;;;95.15;;
57025;SDS011;43961;52.940;6.834;2022-12-16T17:45:29;217.65;;;101.07;;
57025;SDS011;43961;52.940;6.834;2022-12-16T17:48:13;208.55;;;91.03;;
57025;SDS011;43961;52.940;6.834;2022-12-16T17:50:59;227.15;;;93.95;;
57025;SDS011;43961;52.940;6.834;2022-12-16T17:53:46;218.35;;;97.50;;
57025;SDS011;43961;52.940;6.834;2022-12-16T17:56:32;202.32;;;88.55;;
57025;SDS011;43961;52.940;6.834;2022-12-16T17:59:21;114.95;;;51.58;;
57025;SDS011;43961;52.940;6.834;2022-12-16T18:02:05;232.13;;;97.38;;
57025;SDS011;43961;52.940;6.834;2022-12-16T18:04:52;117.47;;;48.05;;
57025;SDS011;43961;52.940;6.834;2022-12-16T18:07:36;230.93;;;99.18;;
57025;SDS011;43961;52.940;6.834;2022-12-16T18:10:20;202.85;;;89.20;;
57025;SDS011;43961;52.940;6.834;2022-12-16T18:13:04;107.80;;;37.63;;
57025;SDS011;43961;52.940;6.834;2022-12-16T18:15:52;199.70;;;89.72;;
57025;SDS011;43961;52.940;6.834;2022-12-16T18:18:36;176.15;;;83.70;;
57025;SDS011;43961;52.940;6.834;2022-12-16T18:21:20;170.93;;;80.63;;
57025;SDS011;43961;52.940;6.834;2022-12-16T18:27:09;175.05;;;82.80;;